Time;durP1;ratioP1;P1;durP2;ratioP2;P2;SDS_P1;SDS_P2;PMS_P1;PMS_P2;Temp;Humidity;BMP_temperature;BMP_pressure;BME280_temperature;BME280_humidity;BME280_pressure;Samples;Min_cycle;Max_cycle;Signal;HPM_P1;HPM_P2
2023/10/29 00:02:13;;;;;;;11.05;10.55;;;;;;;;;;5068751;28;20024;-63
2023/10/29 00:04:38;;;;;;;10.60;10.10;;;;;;;;;;5070286;28;20401;-62
2023/10/29 00:07:04;;;;;;;10.88;10.38;;;;;;;;;;5067874;28;20513;-62
2023/10/29 00:09:30;;;;;;;11.18;10.68;;;;;;;;;;5069540;28;20043;-62
2023/10/29 00:11:56;;;;;;;11.38;10.85;;;;;;;;;;5071790;28;20063;-62
2023/10/29 00:14:21;;;;;;;10.90;10.40;;;;;;;;;;5068550;28;20044;-62
2023/10/29 00:16:47;;;;;;;11.07;10.57;;;;;;;;;;5067807;28;20402;-62
2023/10/29 00:19:12;;;;;;;11.02;10.52;;;;;;;;;;5067089;28;20085;-62
2023/10/29 00:21:38;;;;;;;11.32;10.80;;;;;;;;;;5068511;28;20377;-61
2023/10/29 00:24:04;;;;;;;10.80;10.30;;;;;;;;;;5067644;28;20025;-63
2023/10/29 00:26:29;;;;;;;10.90;10.40;;;;;;;;;;5067624;28;20030;-63
2023/10/29 00:28:55;;;;;;;10.48;9.98;;;;;;;;;;5071193;28;20020;-64
2023/10/29 00:31:20;;;;;;;10.70;10.20;;;;;;;;;;5066937;28;20025;-62
2023/10/29 00:33:46;;;;;;;10.65;10.15;;;;;;;;;;5070311;28;20374;-62
2023/10/29 00:36:11;;;;;;;11.13;10.63;;;;;;;;;;5067220;28;20028;-62
2023/10/29 00:38:37;;;;;;;10.55;10.05;;;;;;;;;;5070255;28;20017;-63
2023/10/29 00:41:02;;;;;;;11.10;10.60;;;;;;;;;;5078348;28;20020;-62
2023/10/29 00:43:27;;;;;;;11.23;10.73;;;;;;;;;;5075395;28;20020;-63
2023/10/29 00:45:54;;;;;;;10.63;10.13;;;;;;;;;;5073323;28;20052;-62
2023/10/29 00:48:19;;;;;;;11.60;11.00;;;;;;;;;;5073924;28;20022;-61
2023/10/29 00:50:45;;;;;;;10.60;10.10;;;;;;;;;;5071326;28;20112;-62
2023/10/29 00:53:10;;;;;;;10.90;10.40;;;;;;;;;;5078092;28;20024;-61
2023/10/29 00:55:36;;;;;;;10.48;9.98;;;;;;;;;;5076406;28;20033;-62
2023/10/29 00:58:02;;;;;;;10.90;10.40;;;;;;;;;;5070031;28;20070;-62
2023/10/29 01:00:27;;;;;;;11.40;10.80;;;;;;;;;;5073226;28;20673;-62
2023/10/29 01:02:53;;;;;;;11.10;10.60;;;;;;;;;;5078051;28;20469;-62
2023/10/29 01:05:18;;;;;;;10.35;9.85;;;;;;;;;;5072166;28;20021;-63
2023/10/29 01:07:43;;;;;;;10.80;10.30;;;;;;;;;;5072767;28;20020;-62
2023/10/29 01:10:09;;;;;;;10.75;10.25;;;;;;;;;;5069923;28;20500;-62
2023/10/29 01:12:34;;;;;;;11.27;10.70;;;;;;;;;;5076249;28;20027;-62
2023/10/29 01:15:00;;;;;;;10.77;10.27;;;;;;;;;;5070588;28;20045;-62
2023/10/29 01:17:25;;;;;;;10.70;10.20;;;;;;;;;;5071830;28;20047;-61
2023/10/29 01:19:50;;;;;;;10.60;10.10;;;;;;;;;;5072743;28;20568;-62
2023/10/29 01:22:18;;;;;;;10.93;10.43;;;;;;;;;;5069524;28;20047;-62
2023/10/29 01:24:44;;;;;;;11.32;10.77;;;;;;;;;;5074076;28;20517;-62
2023/10/29 01:27:10;;;;;;;11.00;10.50;;;;;;;;;;5071577;28;20043;-63
2023/10/29 01:29:35;;;;;;;10.70;10.20;;;;;;;;;;5067602;28;20025;-63
2023/10/29 01:32:01;;;;;;;10.10;9.70;;;;;;;;;;5073028;28;20025;-63
2023/10/29 01:34:26;;;;;;;10.68;10.18;;;;;;;;;;5072326;28;20020;-63
2023/10/29 01:36:52;;;;;;;10.90;10.40;;;;;;;;;;5065105;28;20032;-63
2023/10/29 01:39:17;;;;;;;10.40;9.90;;;;;;;;;;5068952;28;21363;-63
2023/10/29 01:41:42;;;;;;;10.45;9.95;;;;;;;;;;5069550;28;20075;-63
2023/10/29 01:44:08;;;;;;;10.60;10.10;;;;;;;;;;5065510;28;20406;-63
2023/10/29 01:46:33;;;;;;;10.52;10.02;;;;;;;;;;5071819;28;20032;-63
2023/10/29 01:48:58;;;;;;;10.35;9.85;;;;;;;;;;5068391;28;20024;-63
2023/10/29 01:51:24;;;;;;;11.52;10.93;;;;;;;;;;5069276;28;20478;-62
2023/10/29 01:53:49;;;;;;;10.50;10.00;;;;;;;;;;5063108;28;20056;-62
2023/10/29 01:56:14;;;;;;;10.40;9.90;;;;;;;;;;5072603;28;20073;-62
2023/10/29 01:58:40;;;;;;;10.77;10.27;;;;;;;;;;5070628;28;20385;-62
2023/10/29 02:01:11;;;;;;;10.52;10.02;;;;;;;;;;5069903;28;20117;-62
2023/10/29 02:03:37;;;;;;;10.80;10.30;;;;;;;;;;5069439;28;20027;-62
2023/10/29 02:06:03;;;;;;;10.45;9.95;;;;;;;;;;5070519;28;20378;-62
2023/10/29 02:08:28;;;;;;;10.52;10.02;;;;;;;;;;5069698;28;20024;-62
2023/10/29 02:10:53;;;;;;;10.80;10.30;;;;;;;;;;5062186;28;20021;-62
2023/10/29 02:13:19;;;;;;;10.40;9.90;;;;;;;;;;5072045;28;20037;-62
2023/10/29 02:15:44;;;;;;;10.73;10.23;;;;;;;;;;5070189;28;20097;-63
2023/10/29 02:18:11;;;;;;;10.70;10.20;;;;;;;;;;5070749;28;20827;-63
2023/10/29 02:20:37;;;;;;;10.73;10.23;;;;;;;;;;5071176;28;20017;-62
2023/10/29 02:23:02;;;;;;;10.80;10.30;;;;;;;;;;5072464;28;20031;-62
2023/10/29 02:25:28;;;;;;;10.43;9.93;;;;;;;;;;5067478;28;20032;-62
2023/10/29 02:27:53;;;;;;;10.68;10.18;;;;;;;;;;5070924;28;20021;-61
2023/10/29 02:30:18;;;;;;;10.95;10.45;;;;;;;;;;5072266;28;20120;-61
2023/10/29 02:32:45;;;;;;;11.02;10.52;;;;;;;;;;5070441;28;20081;-62
2023/10/29 02:35:10;;;;;;;10.20;9.70;;;;;;;;;;5064840;28;20426;-62
2023/10/29 02:37:36;;;;;;;10.50;10.00;;;;;;;;;;5069890;28;20056;-63
2023/10/29 02:40:02;;;;;;;11.07;10.57;;;;;;;;;;5070041;28;20029;-62
2023/10/29 02:42:27;;;;;;;10.52;10.02;;;;;;;;;;5071811;28;20085;-62
2023/10/29 02:44:52;;;;;;;10.60;10.10;;;;;;;;;;5074940;28;20022;-62
2023/10/29 02:47:18;;;;;;;10.70;10.20;;;;;;;;;;5070181;28;20513;-62
2023/10/29 02:49:43;;;;;;;11.00;10.50;;;;;;;;;;5071308;28;20412;-63
2023/10/29 02:52:08;;;;;;;10.70;10.20;;;;;;;;;;5068337;28;20021;-62
2023/10/29 02:54:34;;;;;;;10.90;10.40;;;;;;;;;;5066371;28;20016;-62
2023/10/29 02:57:00;;;;;;;10.77;10.27;;;;;;;;;;5076014;28;20045;-62
2023/10/29 02:59:25;;;;;;;10.43;9.93;;;;;;;;;;5071133;28;20017;-62
2023/10/29 03:01:50;;;;;;;10.52;10.02;;;;;;;;;;5070102;28;20024;-63
2023/10/29 03:04:15;;;;;;;10.30;9.80;;;;;;;;;;5072430;28;20024;-63
2023/10/29 03:06:41;;;;;;;10.65;10.15;;;;;;;;;;5067478;28;20024;-63
2023/10/29 03:09:07;;;;;;;10.45;9.95;;;;;;;;;;5067528;28;20503;-63
2023/10/29 03:11:32;;;;;;;10.40;9.90;;;;;;;;;;5069846;28;20028;-61
2023/10/29 03:13:59;;;;;;;10.15;9.65;;;;;;;;;;5070337;28;20397;-62
2023/10/29 03:16:24;;;;;;;10.30;9.80;;;;;;;;;;5070098;28;20062;-62
2023/10/29 03:18:50;;;;;;;11.45;10.85;;;;;;;;;;5060268;28;20020;-62
2023/10/29 03:21:18;;;;;;;10.45;9.95;;;;;;;;;;5069428;28;20059;-63
2023/10/29 03:23:43;;;;;;;10.30;9.80;;;;;;;;;;5075219;28;20023;-63
2023/10/29 03:26:08;;;;;;;10.20;9.70;;;;;;;;;;5067103;28;20476;-62
2023/10/29 03:28:37;;;;;;;10.50;10.00;;;;;;;;;;5056232;28;20068;-63
2023/10/29 03:31:09;;;;;;;10.35;9.85;;;;;;;;;;5060999;28;20385;-63
2023/10/29 03:33:34;;;;;;;10.93;10.43;;;;;;;;;;5067220;28;20478;-62
2023/10/29 03:36:02;;;;;;;9.98;9.57;;;;;;;;;;5062083;28;20070;-62
2023/10/29 03:38:27;;;;;;;10.25;9.75;;;;;;;;;;5070991;28;20138;-62
2023/10/29 03:40:53;;;;;;;10.50;10.00;;;;;;;;;;5068623;28;20135;-62
2023/10/29 03:43:18;;;;;;;11.23;10.65;;;;;;;;;;5076139;28;20024;-62
2023/10/29 03:45:43;;;;;;;10.32;9.82;;;;;;;;;;5076334;28;20276;-62
2023/10/29 03:48:09;;;;;;;10.52;10.02;;;;;;;;;;5070824;28;20090;-62
2023/10/29 03:50:34;;;;;;;10.55;10.05;;;;;;;;;;5066759;28;20021;-63
2023/10/29 03:53:00;;;;;;;10.82;10.32;;;;;;;;;;5072818;28;20053;-63
2023/10/29 03:55:25;;;;;;;10.70;10.20;;;;;;;;;;5069796;28;20021;-63
2023/10/29 03:57:50;;;;;;;10.52;10.02;;;;;;;;;;5068376;28;20031;-63
2023/10/29 04:00:16;;;;;;;10.52;10.02;;;;;;;;;;5069307;28;20133;-62
2023/10/29 04:02:41;;;;;;;10.38;9.88;;;;;;;;;;5074394;28;20029;-62
2023/10/29 04:05:06;;;;;;;10.30;9.82;;;;;;;;;;5063659;28;20544;-62
2023/10/29 04:07:32;;;;;;;10.65;10.15;;;;;;;;;;5064883;28;20093;-62
2023/10/29 04:09:58;;;;;;;10.50;10.00;;;;;;;;;;5070274;28;20089;-64
2023/10/29 04:12:26;;;;;;;10.82;10.32;;;;;;;;;;5070092;28;20028;-62
2023/10/29 04:14:51;;;;;;;10.70;10.20;;;;;;;;;;5062335;28;20379;-63
2023/10/29 04:17:16;;;;;;;10.60;10.10;;;;;;;;;;5066826;28;20021;-63
2023/10/29 04:19:42;;;;;;;10.75;10.25;;;;;;;;;;5070887;28;20024;-63
2023/10/29 04:22:08;;;;;;;10.75;10.25;;;;;;;;;;5068940;28;20020;-62
2023/10/29 04:24:33;;;;;;;10.73;10.23;;;;;;;;;;5071281;28;20029;-61
2023/10/29 04:26:58;;;;;;;10.63;10.13;;;;;;;;;;5068563;28;20496;-62
2023/10/29 04:29:24;;;;;;;10.77;10.27;;;;;;;;;;5076033;28;20024;-61
2023/10/29 04:31:49;;;;;;;10.82;10.32;;;;;;;;;;5064654;28;20028;-62
2023/10/29 04:34:14;;;;;;;10.70;10.20;;;;;;;;;;5080132;28;20027;-62
2023/10/29 04:36:42;;;;;;;11.10;10.60;;;;;;;;;;5070243;28;20020;-65
2023/10/29 04:39:07;;;;;;;11.40;10.80;;;;;;;;;;5074951;28;20365;-63
2023/10/29 04:41:33;;;;;;;10.50;10.00;;;;;;;;;;5077484;28;20023;-62
2023/10/29 04:43:59;;;;;;;10.52;10.02;;;;;;;;;;5074760;28;20039;-62
2023/10/29 04:46:24;;;;;;;11.00;10.50;;;;;;;;;;5075264;28;20020;-62
2023/10/29 04:48:49;;;;;;;10.38;9.88;;;;;;;;;;5074692;28;20047;-62
2023/10/29 04:51:15;;;;;;;10.52;10.02;;;;;;;;;;5064135;28;20481;-62
2023/10/29 04:53:40;;;;;;;10.48;9.98;;;;;;;;;;5073942;28;20102;-63
2023/10/29 04:56:05;;;;;;;10.23;9.73;;;;;;;;;;5076712;28;20373;-63
2023/10/29 04:58:33;;;;;;;10.93;10.43;;;;;;;;;;5073483;28;20412;-62
2023/10/29 05:00:59;;;;;;;10.20;9.70;;;;;;;;;;5066683;28;20019;-62
2023/10/29 05:03:24;;;;;;;10.48;9.98;;;;;;;;;;5072028;28;20099;-63
2023/10/29 05:05:50;;;;;;;10.23;9.75;;;;;;;;;;5069885;28;20020;-63
2023/10/29 05:08:15;;;;;;;9.88;9.45;;;;;;;;;;5072043;28;20140;-64
2023/10/29 05:10:45;;;;;;;10.20;9.70;;;;;;;;;;5078344;28;20043;-63
2023/10/29 05:13:11;;;;;;;10.50;10.00;;;;;;;;;;5073861;28;20043;-64
2023/10/29 05:15:36;;;;;;;10.35;9.85;;;;;;;;;;5072516;28;20628;-63
2023/10/29 05:18:02;;;;;;;10.45;9.95;;;;;;;;;;5067770;28;20028;-63
2023/10/29 05:20:27;;;;;;;10.35;9.85;;;;;;;;;;5073040;28;20021;-62
2023/10/29 05:22:53;;;;;;;10.93;10.43;;;;;;;;;;5071044;28;20017;-62
2023/10/29 05:25:18;;;;;;;11.00;10.50;;;;;;;;;;5073862;28;20082;-63
2023/10/29 05:27:53;;;;;;;10.90;10.40;;;;;;;;;;5072099;28;20071;-63
2023/10/29 05:30:19;;;;;;;10.95;10.45;;;;;;;;;;5074229;28;20481;-63
2023/10/29 05:32:44;;;;;;;11.27;10.77;;;;;;;;;;5072068;28;20039;-63
2023/10/29 05:35:09;;;;;;;11.30;10.80;;;;;;;;;;5083734;28;20538;-64
2023/10/29 05:37:35;;;;;;;11.50;11.00;;;;;;;;;;5065457;28;20052;-63
2023/10/29 05:40:04;;;;;;;11.20;10.70;;;;;;;;;;5068568;28;20355;-64
2023/10/29 05:42:30;;;;;;;11.15;10.65;;;;;;;;;;5066942;28;20021;-63
2023/10/29 05:44:55;;;;;;;11.65;11.15;;;;;;;;;;5081299;28;20031;-63
2023/10/29 05:47:20;;;;;;;11.80;11.30;;;;;;;;;;5068637;28;20095;-63
2023/10/29 05:49:46;;;;;;;11.55;11.05;;;;;;;;;;5072865;28;20109;-64
2023/10/29 05:52:11;;;;;;;11.55;11.05;;;;;;;;;;5069014;28;20373;-63
2023/10/29 05:54:36;;;;;;;11.60;11.10;;;;;;;;;;5072253;28;20027;-63
2023/10/29 05:57:02;;;;;;;11.77;11.27;;;;;;;;;;5063525;28;20563;-63
2023/10/29 05:59:28;;;;;;;11.93;11.43;;;;;;;;;;5070944;28;20540;-63
2023/10/29 06:01:53;;;;;;;12.07;11.57;;;;;;;;;;5069477;28;20024;-64
2023/10/29 06:04:18;;;;;;;12.00;11.50;;;;;;;;;;5073926;28;20108;-63
2023/10/29 06:06:44;;;;;;;11.70;11.20;;;;;;;;;;5068783;28;20027;-64
2023/10/29 06:09:09;;;;;;;11.95;11.45;;;;;;;;;;5065538;28;20059;-64
2023/10/29 06:11:34;;;;;;;12.20;11.70;;;;;;;;;;5068309;28;20024;-64
2023/10/29 06:14:01;;;;;;;12.02;11.52;;;;;;;;;;5065522;28;20037;-64
2023/10/29 06:16:27;;;;;;;12.20;11.70;;;;;;;;;;5076839;28;20547;-64
2023/10/29 06:18:52;;;;;;;11.98;11.48;;;;;;;;;;5068889;28;20052;-63
2023/10/29 06:21:20;;;;;;;12.00;11.50;;;;;;;;;;5069126;28;20078;-64
2023/10/29 06:23:46;;;;;;;12.02;11.52;;;;;;;;;;5069316;28;20579;-63
2023/10/29 06:26:11;;;;;;;12.15;11.65;;;;;;;;;;5066507;28;20029;-64
2023/10/29 06:28:36;;;;;;;12.05;11.55;;;;;;;;;;5071812;28;20020;-64
2023/10/29 06:31:03;;;;;;;12.23;11.73;;;;;;;;;;5060254;28;20131;-63
2023/10/29 06:33:29;;;;;;;12.13;11.63;;;;;;;;;;5078266;28;20025;-63
2023/10/29 06:35:57;;;;;;;12.02;11.52;;;;;;;;;;5075177;28;20073;-62
2023/10/29 06:38:23;;;;;;;12.15;11.65;;;;;;;;;;5072195;28;20517;-64
2023/10/29 06:40:48;;;;;;;12.30;11.80;;;;;;;;;;5069551;28;20183;-64
2023/10/29 06:43:14;;;;;;;12.43;11.88;;;;;;;;;;5067726;28;20401;-64
2023/10/29 06:45:39;;;;;;;12.10;11.60;;;;;;;;;;5075203;28;20024;-63
2023/10/29 06:48:05;;;;;;;12.10;11.60;;;;;;;;;;5069301;28;20328;-64
2023/10/29 06:50:30;;;;;;;12.05;11.55;;;;;;;;;;5062724;28;20036;-63
2023/10/29 06:52:55;;;;;;;12.02;11.52;;;;;;;;;;5064924;28;20073;-62
2023/10/29 06:55:23;;;;;;;12.18;11.68;;;;;;;;;;5071440;28;20021;-63
2023/10/29 06:57:48;;;;;;;12.15;11.65;;;;;;;;;;5069604;28;20088;-64
2023/10/29 07:00:13;;;;;;;12.00;11.50;;;;;;;;;;5069687;28;20092;-64
2023/10/29 07:02:39;;;;;;;12.27;11.77;;;;;;;;;;5065518;28;20485;-64
2023/10/29 07:05:04;;;;;;;12.00;11.50;;;;;;;;;;5066733;28;20017;-64
2023/10/29 07:07:30;;;;;;;12.07;11.57;;;;;;;;;;5070326;28;20033;-64
2023/10/29 07:09:56;;;;;;;12.07;11.57;;;;;;;;;;5068134;28;20028;-63
2023/10/29 07:12:21;;;;;;;12.32;11.82;;;;;;;;;;5071457;28;20505;-63
2023/10/29 07:14:46;;;;;;;12.25;11.75;;;;;;;;;;5077772;28;20055;-64
2023/10/29 07:17:12;;;;;;;12.60;12.00;;;;;;;;;;5068744;28;20012;-64
2023/10/29 07:19:38;;;;;;;12.32;11.82;;;;;;;;;;5069910;28;20019;-63
2023/10/29 07:22:03;;;;;;;12.10;11.60;;;;;;;;;;5068901;28;20029;-63
2023/10/29 07:24:29;;;;;;;12.05;11.55;;;;;;;;;;5062207;28;20024;-64
2023/10/29 07:26:54;;;;;;;12.10;11.60;;;;;;;;;;5074955;28;20099;-64
2023/10/29 07:29:20;;;;;;;12.37;11.87;;;;;;;;;;5075268;28;20016;-64
2023/10/29 07:31:45;;;;;;;12.30;11.80;;;;;;;;;;5071285;28;20981;-64
2023/10/29 07:34:10;;;;;;;12.33;11.83;;;;;;;;;;5070706;28;20763;-64
2023/10/29 07:36:35;;;;;;;12.55;11.95;;;;;;;;;;5071545;28;20249;-65
2023/10/29 07:39:01;;;;;;;11.95;11.45;;;;;;;;;;5072480;28;20211;-62
2023/10/29 07:41:26;;;;;;;12.27;11.77;;;;;;;;;;5066699;28;20056;-63
2023/10/29 07:43:51;;;;;;;12.17;11.67;;;;;;;;;;5073566;28;20297;-63
2023/10/29 07:46:17;;;;;;;12.33;11.83;;;;;;;;;;5065082;28;20338;-64
2023/10/29 07:48:42;;;;;;;12.10;11.60;;;;;;;;;;5069234;28;20338;-64
2023/10/29 07:51:10;;;;;;;12.05;11.55;;;;;;;;;;5067962;28;20576;-63
2023/10/29 07:53:36;;;;;;;12.40;11.90;;;;;;;;;;5064250;28;20103;-63
2023/10/29 07:56:08;;;;;;;12.23;11.73;;;;;;;;;;5069820;28;20099;-64
2023/10/29 07:58:33;;;;;;;12.20;11.70;;;;;;;;;;5062201;28;20106;-64
2023/10/29 08:00:58;;;;;;;12.15;11.65;;;;;;;;;;5072588;28;20048;-64
2023/10/29 08:03:23;;;;;;;12.10;11.60;;;;;;;;;;5082097;28;20040;-64
2023/10/29 08:05:52;;;;;;;12.10;11.60;;;;;;;;;;5074254;28;20306;-63
2023/10/29 08:08:18;;;;;;;12.20;11.70;;;;;;;;;;5073842;28;20513;-64
2023/10/29 08:10:44;;;;;;;12.25;11.75;;;;;;;;;;5070918;28;20048;-64
2023/10/29 08:13:10;;;;;;;12.45;11.90;;;;;;;;;;5083224;28;20025;-64
2023/10/29 08:15:38;;;;;;;12.20;11.70;;;;;;;;;;5077468;28;20027;-63
2023/10/29 08:18:04;;;;;;;12.55;11.95;;;;;;;;;;5068574;28;20020;-63
2023/10/29 08:20:29;;;;;;;12.23;11.73;;;;;;;;;;5073350;28;20020;-63
2023/10/29 08:22:54;;;;;;;12.20;11.70;;;;;;;;;;5072169;28;20024;-62
2023/10/29 08:25:20;;;;;;;12.15;11.65;;;;;;;;;;5069648;28;20016;-63
2023/10/29 08:27:46;;;;;;;11.90;11.40;;;;;;;;;;5070846;28;20021;-63
2023/10/29 08:30:12;;;;;;;12.23;11.73;;;;;;;;;;5069618;28;20024;-64
2023/10/29 08:32:37;;;;;;;12.05;11.55;;;;;;;;;;5064192;28;20033;-64
2023/10/29 08:35:03;;;;;;;12.00;11.50;;;;;;;;;;5073924;28;20021;-64
2023/10/29 08:37:28;;;;;;;12.13;11.63;;;;;;;;;;5070417;28;20377;-64
2023/10/29 08:39:57;;;;;;;12.02;11.52;;;;;;;;;;5074015;28;20016;-63
2023/10/29 08:42:22;;;;;;;12.18;11.68;;;;;;;;;;5073696;28;20024;-64
2023/10/29 08:44:47;;;;;;;12.20;11.70;;;;;;;;;;5065298;28;20031;-64
2023/10/29 08:47:13;;;;;;;11.97;11.47;;;;;;;;;;5081041;28;20036;-64
2023/10/29 08:49:38;;;;;;;11.95;11.45;;;;;;;;;;5078410;28;20257;-65
2023/10/29 08:52:03;;;;;;;12.30;11.80;;;;;;;;;;5068277;28;20033;-65
2023/10/29 08:54:29;;;;;;;12.20;11.70;;;;;;;;;;5071819;28;20261;-62
2023/10/29 08:56:54;;;;;;;12.23;11.73;;;;;;;;;;5081284;28;20012;-64
2023/10/29 08:59:20;;;;;;;12.32;11.82;;;;;;;;;;5066747;28;20028;-64
2023/10/29 09:01:46;;;;;;;12.23;11.73;;;;;;;;;;5071105;28;20032;-64
2023/10/29 09:04:11;;;;;;;12.02;11.52;;;;;;;;;;5072920;28;20099;-63
2023/10/29 09:06:37;;;;;;;12.30;11.80;;;;;;;;;;5071948;28;20503;-63
2023/10/29 09:09:04;;;;;;;12.27;11.77;;;;;;;;;;5068905;28;20025;-64
2023/10/29 09:11:29;;;;;;;12.18;11.68;;;;;;;;;;5070045;28;20052;-65
2023/10/29 09:13:54;;;;;;;12.10;11.60;;;;;;;;;;5073172;28;20410;-64
2023/10/29 09:16:20;;;;;;;11.93;11.43;;;;;;;;;;5071048;28;20074;-64
2023/10/29 09:18:45;;;;;;;11.95;11.45;;;;;;;;;;5077538;28;20028;-65
2023/10/29 09:21:11;;;;;;;11.63;11.13;;;;;;;;;;5068227;28;20012;-63
2023/10/29 09:23:36;;;;;;;12.15;11.65;;;;;;;;;;5069682;28;20036;-63
2023/10/29 09:26:02;;;;;;;11.57;11.07;;;;;;;;;;5069494;28;20374;-63
2023/10/29 09:28:27;;;;;;;12.05;11.55;;;;;;;;;;5073239;28;20433;-63
2023/10/29 09:30:53;;;;;;;11.60;11.10;;;;;;;;;;5071991;28;20474;-64
2023/10/29 09:33:18;;;;;;;11.82;11.32;;;;;;;;;;5075551;28;20024;-63
2023/10/29 09:35:43;;;;;;;11.93;11.43;;;;;;;;;;5066539;28;20071;-64
2023/10/29 09:38:09;;;;;;;12.18;11.68;;;;;;;;;;5067493;28;20009;-63
2023/10/29 09:40:35;;;;;;;11.90;11.40;;;;;;;;;;5069937;28;20016;-64
2023/10/29 09:43:04;;;;;;;11.90;11.40;;;;;;;;;;5071693;28;20016;-64
2023/10/29 09:45:32;;;;;;;12.10;11.60;;;;;;;;;;5071551;28;20020;-62
2023/10/29 09:48:01;;;;;;;12.23;11.68;;;;;;;;;;5074440;28;20073;-63
2023/10/29 09:50:26;;;;;;;12.20;11.70;;;;;;;;;;5069145;28;20021;-64
2023/10/29 09:52:55;;;;;;;11.90;11.40;;;;;;;;;;5070321;28;20183;-63
2023/10/29 09:55:21;;;;;;;11.93;11.43;;;;;;;;;;5070357;28;20040;-62
2023/10/29 09:57:47;;;;;;;12.05;11.55;;;;;;;;;;5059001;28;20033;-63
2023/10/29 10:00:13;;;;;;;12.48;11.88;;;;;;;;;;5081695;28;20389;-63
2023/10/29 10:02:49;;;;;;;12.40;11.80;;;;;;;;;;5067573;28;20030;-63
2023/10/29 10:05:16;;;;;;;12.10;11.60;;;;;;;;;;5071077;28;20008;-63
2023/10/29 10:07:41;;;;;;;11.82;11.32;;;;;;;;;;5069829;28;20023;-64
2023/10/29 10:10:07;;;;;;;12.00;11.50;;;;;;;;;;5081464;28;20020;-63
2023/10/29 10:12:32;;;;;;;12.27;11.73;;;;;;;;;;5066305;28;20099;-63
2023/10/29 10:15:04;;;;;;;12.27;11.70;;;;;;;;;;5069239;28;20583;-64
2023/10/29 10:17:29;;;;;;;11.75;11.25;;;;;;;;;;5067642;28;20020;-63
2023/10/29 10:20:08;;;;;;;13.13;12.52;;;;;;;;;;5071564;28;20535;-64
2023/10/29 10:22:37;;;;;;;12.52;11.93;;;;;;;;;;5070508;28;20118;-64
2023/10/29 10:25:03;;;;;;;12.27;11.68;;;;;;;;;;5071644;28;20018;-64
2023/10/29 10:27:29;;;;;;;12.00;11.50;;;;;;;;;;5080564;28;20032;-64
2023/10/29 10:29:54;;;;;;;11.60;11.10;;;;;;;;;;5073940;28;20100;-63
2023/10/29 10:32:25;;;;;;;11.45;10.95;;;;;;;;;;5072040;28;20527;-64
2023/10/29 10:34:51;;;;;;;11.95;11.45;;;;;;;;;;5071334;28;20550;-65
2023/10/29 10:37:17;;;;;;;11.88;11.38;;;;;;;;;;5071370;28;20024;-63
2023/10/29 10:39:42;;;;;;;11.70;11.20;;;;;;;;;;5071523;28;20092;-64
2023/10/29 10:42:07;;;;;;;11.90;11.40;;;;;;;;;;5072392;28;20052;-64
2023/10/29 10:44:35;;;;;;;11.82;11.32;;;;;;;;;;5074831;28;20069;-64
2023/10/29 10:47:03;;;;;;;11.93;11.43;;;;;;;;;;5077348;28;20012;-64
2023/10/29 10:49:31;;;;;;;12.00;11.50;;;;;;;;;;5068188;28;20028;-64
2023/10/29 10:51:58;;;;;;;12.10;11.57;;;;;;;;;;5079863;28;20516;-64
2023/10/29 10:54:25;;;;;;;12.38;11.77;;;;;;;;;;5072123;28;20024;-64
2023/10/29 10:56:51;;;;;;;11.82;11.32;;;;;;;;;;5067166;28;20024;-64
2023/10/29 10:59:17;;;;;;;12.20;11.65;;;;;;;;;;5064824;28;20028;-64
2023/10/29 11:01:42;;;;;;;11.60;11.10;;;;;;;;;;5072385;28;20444;-64
2023/10/29 11:04:08;;;;;;;11.68;11.18;;;;;;;;;;5069916;28;20024;-64
2023/10/29 11:06:37;;;;;;;11.90;11.40;;;;;;;;;;5072857;28;21211;-64
2023/10/29 11:09:05;;;;;;;11.63;11.13;;;;;;;;;;5067168;28;20027;-63
2023/10/29 11:11:35;;;;;;;12.07;11.57;;;;;;;;;;5062748;28;20112;-63
2023/10/29 11:14:14;;;;;;;11.60;11.10;;;;;;;;;;5074592;28;20505;-63
2023/10/29 11:16:53;;;;;;;11.80;11.30;;;;;;;;;;5073390;28;20021;-64
2023/10/29 11:19:47;;;;;;;11.85;11.35;;;;;;;;;;5065251;28;20385;-64
2023/10/29 11:22:12;;;;;;;11.93;11.43;;;;;;;;;;5069588;28;20025;-64
2023/10/29 11:24:37;;;;;;;11.50;11.00;;;;;;;;;;5068924;28;20020;-64
2023/10/29 11:27:43;;;;;;;11.93;11.43;;;;;;;;;;5068326;28;20056;-64
2023/10/29 11:30:08;;;;;;;;;;;;;;;;;;5036674;28;20037;-64
2023/10/29 11:32:35;;;;;;;12.00;11.50;;;;;;;;;;5036105;28;19996;-63
2023/10/29 11:35:19;;;;;;;11.38;10.88;;;;;;;;;;5047544;28;20028;-63
2023/10/29 11:37:45;;;;;;;11.75;11.25;;;;;;;;;;5069254;28;20070;-63
2023/10/29 11:40:23;;;;;;;12.25;11.70;;;;;;;;;;5074789;28;20489;-63
2023/10/29 11:42:48;;;;;;;11.63;11.13;;;;;;;;;;5077139;28;20016;-63
2023/10/29 11:45:29;;;;;;;11.98;11.48;;;;;;;;;;5067984;28;20024;-63
2023/10/29 11:48:20;;;;;;;11.88;11.38;;;;;;;;;;5067548;28;20104;-63
2023/10/29 11:51:18;;;;;;;11.80;11.30;;;;;;;;;;5067544;28;20127;-63
2023/10/29 11:53:43;;;;;;;12.18;11.65;;;;;;;;;;5045130;28;20040;-63
2023/10/29 11:56:10;;;;;;;12.00;11.50;;;;;;;;;;5075000;28;20031;-63
2023/10/29 11:58:35;;;;;;;12.05;11.55;;;;;;;;;;5071731;28;20220;-64
2023/10/29 12:01:01;;;;;;;12.05;11.55;;;;;;;;;;5072465;28;20023;-64
2023/10/29 12:03:26;;;;;;;11.80;11.30;;;;;;;;;;5067472;28;20092;-64
2023/10/29 12:05:53;;;;;;;12.10;11.57;;;;;;;;;;5070694;28;20078;-63
2023/10/29 12:08:18;;;;;;;12.23;11.70;;;;;;;;;;5067757;28;20021;-65
2023/10/29 12:10:44;;;;;;;11.60;11.10;;;;;;;;;;5061740;28;20431;-64
2023/10/29 12:13:10;;;;;;;11.60;11.10;;;;;;;;;;5073428;28;20032;-64
2023/10/29 12:15:35;;;;;;;11.82;11.32;;;;;;;;;;5070283;28;20025;-64
2023/10/29 12:18:00;;;;;;;11.52;11.02;;;;;;;;;;5068421;28;20013;-65
2023/10/29 12:20:26;;;;;;;12.70;12.10;;;;;;;;;;5068001;28;20139;-64
2023/10/29 12:22:52;;;;;;;11.85;11.35;;;;;;;;;;5067763;28;20047;-63
2023/10/29 12:25:18;;;;;;;11.48;10.98;;;;;;;;;;5068039;28;20102;-64
2023/10/29 12:27:44;;;;;;;11.60;11.10;;;;;;;;;;5067480;28;20446;-65
2023/10/29 12:30:29;;;;;;;11.52;11.02;;;;;;;;;;5060036;28;20014;-65
2023/10/29 12:33:13;;;;;;;11.60;11.10;;;;;;;;;;5067749;28;20029;-64
2023/10/29 12:35:39;;;;;;;11.25;10.75;;;;;;;;;;5061258;28;20386;-64
2023/10/29 12:38:04;;;;;;;11.80;11.30;;;;;;;;;;5070167;28;20032;-63
2023/10/29 12:40:30;;;;;;;11.90;11.40;;;;;;;;;;5070880;28;20025;-63
2023/10/29 12:42:56;;;;;;;11.65;11.15;;;;;;;;;;5067619;28;20129;-64
2023/10/29 12:45:31;;;;;;;12.38;11.77;;;;;;;;;;5068751;28;20041;-64
2023/10/29 12:48:08;;;;;;;11.40;10.90;;;;;;;;;;5074602;28;20077;-64
2023/10/29 12:50:47;;;;;;;11.75;11.25;;;;;;;;;;5075285;28;20107;-64
2023/10/29 12:53:19;;;;;;;12.05;11.55;;;;;;;;;;5070999;28;20013;-64
2023/10/29 12:55:45;;;;;;;12.07;11.57;;;;;;;;;;5072711;28;20423;-63
2023/10/29 12:58:11;;;;;;;12.00;11.50;;;;;;;;;;5070143;28;20031;-63
2023/10/29 13:00:37;;;;;;;11.90;11.40;;;;;;;;;;5073498;28;20085;-63
2023/10/29 13:03:07;;;;;;;12.65;12.05;;;;;;;;;;5069142;28;20083;-63
2023/10/29 13:05:33;;;;;;;11.50;11.00;;;;;;;;;;5075068;28;20024;-63
2023/10/29 13:07:59;;;;;;;11.45;10.95;;;;;;;;;;5074496;28;20032;-64
2023/10/29 13:10:24;;;;;;;12.00;11.50;;;;;;;;;;5079735;28;20054;-65
2023/10/29 13:12:50;;;;;;;12.23;11.65;;;;;;;;;;5070176;28;20048;-63
2023/10/29 13:15:15;;;;;;;11.90;11.40;;;;;;;;;;5073052;28;20285;-63
2023/10/29 13:17:41;;;;;;;11.57;11.07;;;;;;;;;;5068278;28;20012;-64
2023/10/29 13:20:09;;;;;;;11.90;11.40;;;;;;;;;;5071550;28;20025;-64
2023/10/29 13:22:34;;;;;;;11.77;11.27;;;;;;;;;;5071126;28;20050;-64
2023/10/29 13:25:01;;;;;;;11.43;10.93;;;;;;;;;;5064147;28;20021;-63
2023/10/29 13:27:30;;;;;;;11.60;11.10;;;;;;;;;;5071112;28;20029;-63
2023/10/29 13:29:55;;;;;;;12.30;11.70;;;;;;;;;;5064538;28;20029;-63
2023/10/29 13:32:20;;;;;;;12.07;11.57;;;;;;;;;;5070505;28;20028;-63
2023/10/29 13:34:48;;;;;;;11.48;10.98;;;;;;;;;;5070458;28;20087;-64
2023/10/29 13:37:14;;;;;;;11.98;11.48;;;;;;;;;;5074635;28;20021;-64
2023/10/29 13:39:39;;;;;;;11.60;11.10;;;;;;;;;;5074997;28;20500;-65
2023/10/29 13:42:05;;;;;;;11.75;11.25;;;;;;;;;;5067012;28;20410;-64
2023/10/29 13:44:30;;;;;;;11.90;11.40;;;;;;;;;;5072890;28;20512;-64
2023/10/29 13:46:56;;;;;;;12.00;11.50;;;;;;;;;;5071166;28;20505;-64
2023/10/29 13:49:21;;;;;;;11.77;11.27;;;;;;;;;;5073167;28;20050;-63
2023/10/29 13:51:47;;;;;;;11.85;11.35;;;;;;;;;;5068824;28;20131;-64
2023/10/29 13:54:12;;;;;;;12.30;11.70;;;;;;;;;;5070898;28;20088;-64
2023/10/29 13:56:37;;;;;;;12.80;12.20;;;;;;;;;;5068377;28;20027;-64
2023/10/29 13:59:03;;;;;;;11.73;11.23;;;;;;;;;;5069534;28;20570;-63
2023/10/29 14:01:28;;;;;;;11.95;11.45;;;;;;;;;;5070543;28;20483;-64
2023/10/29 14:03:55;;;;;;;12.05;11.55;;;;;;;;;;5072182;28;20043;-63
2023/10/29 14:06:21;;;;;;;12.00;11.50;;;;;;;;;;5069773;28;20039;-64
2023/10/29 14:08:46;;;;;;;12.05;11.55;;;;;;;;;;5071630;28;20028;-62
2023/10/29 14:11:16;;;;;;;11.73;11.23;;;;;;;;;;5066791;28;20016;-64
2023/10/29 14:13:42;;;;;;;11.82;11.32;;;;;;;;;;5084647;28;20094;-64
2023/10/29 14:16:07;;;;;;;11.40;10.90;;;;;;;;;;5073262;28;20594;-64